createdAt,value
2019-03-03T00:00:44.615Z,4.75
2019-03-03T00:03:13.275Z,4.78
2019-03-03T00:05:42.058Z,4.76
2019-03-03T00:08:10.676Z,4.84
2019-03-03T00:10:39.251Z,4.88
2019-03-03T00:13:07.897Z,4.92
2019-03-03T00:15:37.114Z,4.99
2019-03-03T00:18:05.823Z,5.02
2019-03-03T00:20:34.445Z,5.02
2019-03-03T00:23:03.120Z,5.09
2019-03-03T00:25:31.663Z,5.08
2019-03-03T00:28:00.507Z,5.13
2019-03-03T00:30:29.149Z,5.16
2019-03-03T00:32:57.790Z,5.14
2019-03-03T00:35:26.327Z,5.18
2019-03-03T00:37:59.437Z,5.27
2019-03-03T00:40:35.880Z,5.25
2019-03-03T00:43:22.357Z,5.31
2019-03-03T00:46:09.859Z,5.29
2019-03-03T00:48:55.301Z,5.31
2019-03-03T00:51:41.386Z,5.27
2019-03-03T00:54:11.625Z,5.36
2019-03-03T00:56:41.816Z,5.25
2019-03-03T00:59:28.635Z,5.34
2019-03-03T01:01:58.880Z,5.38
2019-03-03T01:04:29.032Z,5.39
2019-03-03T01:07:08.071Z,5.43
2019-03-03T01:09:53.493Z,5.38
2019-03-03T01:12:23.823Z,5.37
2019-03-03T01:15:05.952Z,5.34
2019-03-03T01:17:38.825Z,5.34
2019-03-03T01:20:11.554Z,5.33
2019-03-03T01:22:41.868Z,5.30
2019-03-03T01:25:10.640Z,5.35
2019-03-03T01:27:39.494Z,5.36
2019-03-03T01:30:11.433Z,5.41
2019-03-03T01:32:40.129Z,5.45
2019-03-03T01:35:10.597Z,5.53
2019-03-03T01:37:39.221Z,5.56
2019-03-03T01:40:09.955Z,5.64
2019-03-03T01:42:38.588Z,5.62
2019-03-03T01:45:12.977Z,5.73
2019-03-03T01:47:41.745Z,5.66
2019-03-03T01:50:12.082Z,5.72
2019-03-03T01:52:40.971Z,5.70
2019-03-03T01:55:11.296Z,5.64
2019-03-03T01:57:40.244Z,5.69
2019-03-03T02:00:22.967Z,5.79
2019-03-03T02:02:51.609Z,5.62
2019-03-03T02:05:20.173Z,5.72
2019-03-03T02:07:48.991Z,5.73
2019-03-03T02:10:19.830Z,5.79
2019-03-03T02:12:48.553Z,5.78
2019-03-03T02:15:17.332Z,5.78
2019-03-03T02:17:45.969Z,5.83
2019-03-03T02:20:14.559Z,5.86
2019-03-03T02:22:43.613Z,5.87
2019-03-03T02:25:14.145Z,5.88
2019-03-03T02:27:42.835Z,5.88
2019-03-03T02:30:19.386Z,5.87
2019-03-03T02:32:49.027Z,5.87
2019-03-03T02:35:17.896Z,5.84
2019-03-03T02:37:46.900Z,5.85
2019-03-03T02:40:17.758Z,5.94
2019-03-03T02:42:46.599Z,5.89
2019-03-03T02:45:16.517Z,5.87
2019-03-03T02:47:45.208Z,5.85
2019-03-03T02:50:15.395Z,5.80
2019-03-03T02:52:44.681Z,5.84
2019-03-03T02:55:14.798Z,5.83
2019-03-03T02:57:43.446Z,5.72
2019-03-03T03:00:23.424Z,5.73
2019-03-03T03:02:53.961Z,5.89
2019-03-03T03:05:42.256Z,5.92
2019-03-03T03:08:12.511Z,5.90
2019-03-03T03:10:42.701Z,5.84
2019-03-03T03:13:29.650Z,5.95
2019-03-03T03:16:08.665Z,5.95
2019-03-03T03:18:39.011Z,6.01
2019-03-03T03:21:09.637Z,6.02
2019-03-03T03:23:46.037Z,6.07
2019-03-03T03:26:24.978Z,6.04
2019-03-03T03:28:58.170Z,6.10
2019-03-03T03:31:37.177Z,6.19
2019-03-03T03:34:13.424Z,6.17
2019-03-03T03:36:58.909Z,6.14
2019-03-03T03:39:31.981Z,6.27
2019-03-03T03:42:11.114Z,6.26
2019-03-03T03:44:44.237Z,6.20
2019-03-03T03:47:17.647Z,6.23
2019-03-03T03:50:04.366Z,6.25
2019-03-03T03:52:34.748Z,6.21
2019-03-03T03:55:14.919Z,6.14
2019-03-03T03:57:48.009Z,6.18
2019-03-03T04:00:33.551Z,6.16
2019-03-03T04:03:06.240Z,6.21
2019-03-03T04:05:39.836Z,6.24
2019-03-03T04:08:13.091Z,6.34
2019-03-03T04:11:01.459Z,6.41
2019-03-03T04:13:34.132Z,6.45
2019-03-03T04:16:16.547Z,6.49
2019-03-03T04:18:52.771Z,6.55
2019-03-03T04:21:25.969Z,6.55
2019-03-03T04:24:02.316Z,6.58
2019-03-03T04:26:35.626Z,6.60
2019-03-03T04:29:14.519Z,6.74
2019-03-03T04:31:47.731Z,6.66
2019-03-03T04:34:32.941Z,6.70
2019-03-03T04:37:21.553Z,6.71
2019-03-03T04:39:51.868Z,6.83
2019-03-03T04:42:38.366Z,6.86
2019-03-03T04:45:12.223Z,6.91
2019-03-03T04:47:54.788Z,6.93
2019-03-03T04:50:28.052Z,6.92
2019-03-03T04:53:10.402Z,6.95
2019-03-03T04:55:43.661Z,6.90
2019-03-03T04:58:23.127Z,6.99
2019-03-03T05:01:09.669Z,6.98
2019-03-03T05:03:45.795Z,6.98
2019-03-03T05:06:22.278Z,7.03
2019-03-03T05:08:52.603Z,7.07
2019-03-03T05:12:15.601Z,7.11
2019-03-03T05:14:44.777Z,7.13
2019-03-03T05:17:15.025Z,7.14
2019-03-03T05:19:45.344Z,7.22
2019-03-03T05:22:13.936Z,7.19
2019-03-03T05:24:42.543Z,7.20
2019-03-03T05:27:11.102Z,7.26
2019-03-03T05:29:40.957Z,7.25
2019-03-03T05:32:09.627Z,7.18
2019-03-03T05:34:38.228Z,7.17
2019-03-03T05:37:06.783Z,7.18
2019-03-03T05:39:35.436Z,7.21
2019-03-03T05:42:04.033Z,7.23
2019-03-03T05:44:32.734Z,7.26
2019-03-03T05:47:01.272Z,7.28
2019-03-03T05:49:29.929Z,7.25
2019-03-03T05:51:58.568Z,7.34
2019-03-03T05:54:27.491Z,7.33
2019-03-03T05:56:56.065Z,7.34
2019-03-03T05:59:24.729Z,7.36
2019-03-03T06:01:53.259Z,7.40
2019-03-03T06:04:21.926Z,7.43
2019-03-03T06:06:50.501Z,7.57
2019-03-03T06:09:19.330Z,7.62
2019-03-03T06:11:47.837Z,7.64
2019-03-03T06:14:16.455Z,7.62
2019-03-03T06:16:44.992Z,7.70
2019-03-03T06:19:13.606Z,7.83
2019-03-03T06:21:42.304Z,7.84
2019-03-03T06:24:10.868Z,7.89
2019-03-03T06:26:39.477Z,7.88
2019-03-03T06:29:08.180Z,8.01
2019-03-03T06:31:36.870Z,8.03
2019-03-03T06:34:05.785Z,8.09
2019-03-03T06:36:34.363Z,8.16
2019-03-03T06:39:03.157Z,7.73
2019-03-03T06:41:31.792Z,8.31
2019-03-03T06:44:00.374Z,8.32
2019-03-03T06:46:28.946Z,8.35
2019-03-03T06:48:57.585Z,8.41
2019-03-03T06:51:26.228Z,8.42
2019-03-03T06:53:54.852Z,8.50
2019-03-03T06:56:23.391Z,8.60
2019-03-03T06:58:52.063Z,8.63
2019-03-03T07:01:20.580Z,8.60
2019-03-03T07:03:49.218Z,8.69
2019-03-03T07:06:17.832Z,8.81
2019-03-03T07:08:46.488Z,8.84
2019-03-03T07:11:15.096Z,8.86
2019-03-03T07:13:43.660Z,8.95
2019-03-03T07:16:12.294Z,8.96
2019-03-03T07:18:40.955Z,9.02
2019-03-03T07:21:09.532Z,9.03
2019-03-03T07:23:38.218Z,9.06
2019-03-03T07:26:06.826Z,9.07
2019-03-03T07:28:35.471Z,9.20
2019-03-03T07:31:04.091Z,9.23
2019-03-03T07:33:32.943Z,9.29
2019-03-03T07:36:01.586Z,9.32
2019-03-03T07:38:30.287Z,9.34
2019-03-03T07:40:59.969Z,9.44
2019-03-03T07:43:28.603Z,9.49
2019-03-03T07:45:57.208Z,9.53
2019-03-03T07:48:25.775Z,9.60
2019-03-03T07:50:54.374Z,9.64
2019-03-03T07:53:23.041Z,9.64
2019-03-03T07:55:51.648Z,9.75
2019-03-03T07:58:20.249Z,9.77
2019-03-03T08:00:48.812Z,9.83
2019-03-03T08:03:17.475Z,9.84
2019-03-03T08:05:46.084Z,9.84
2019-03-03T08:08:14.757Z,9.93
2019-03-03T08:10:43.292Z,10.01
2019-03-03T08:13:11.988Z,10.10
2019-03-03T08:15:40.631Z,10.08
2019-03-03T08:18:09.205Z,10.20
2019-03-03T08:20:38.158Z,10.26
2019-03-03T08:23:06.820Z,10.34
2019-03-03T08:25:35.684Z,10.36
2019-03-03T08:28:04.613Z,10.39
2019-03-03T08:30:33.416Z,10.39
2019-03-03T08:33:02.022Z,10.50
2019-03-03T08:35:32.384Z,10.65
2019-03-03T08:38:00.976Z,10.71
2019-03-03T08:40:29.542Z,10.73
2019-03-03T08:43:04.109Z,10.75
2019-03-03T08:45:52.834Z,10.75
2019-03-03T08:48:26.096Z,10.77
2019-03-03T08:50:59.180Z,10.72
2019-03-03T08:53:45.852Z,10.55
2019-03-03T08:56:24.963Z,10.63
2019-03-03T08:58:57.963Z,10.70
2019-03-03T09:01:43.551Z,10.72
2019-03-03T09:04:13.821Z,10.80
2019-03-03T09:06:49.817Z,10.79
2019-03-03T09:09:20.032Z,10.69
2019-03-03T09:12:08.003Z,10.68
2019-03-03T09:14:47.348Z,10.82
2019-03-03T09:17:17.620Z,10.77
2019-03-03T09:19:53.384Z,10.79
2019-03-03T09:22:25.995Z,10.95
2019-03-03T09:24:56.237Z,10.86
2019-03-03T09:27:41.676Z,10.88
2019-03-03T09:30:16.341Z,10.84
2019-03-03T09:32:46.577Z,10.93
2019-03-03T09:35:22.873Z,10.90
2019-03-03T09:37:55.856Z,10.91
2019-03-03T09:40:34.147Z,10.89
2019-03-03T09:43:04.371Z,11.01
2019-03-03T09:45:35.003Z,11.17
2019-03-03T09:48:05.572Z,11.21
2019-03-03T09:50:35.775Z,11.18
2019-03-03T09:53:12.125Z,11.17
2019-03-03T09:56:00.502Z,11.29
2019-03-03T09:58:46.886Z,11.27
2019-03-03T10:01:17.160Z,11.19
2019-03-03T10:04:03.333Z,11.10
2019-03-03T10:06:36.778Z,11.17
2019-03-03T10:09:17.372Z,11.23
2019-03-03T10:11:53.572Z,11.29
2019-03-03T10:14:35.690Z,11.21
2019-03-03T10:17:15.472Z,11.34
2019-03-03T10:19:52.465Z,11.31
2019-03-03T10:22:29.192Z,11.31
2019-03-03T10:24:59.670Z,11.37
2019-03-03T10:27:38.657Z,11.36
2019-03-03T10:30:25.673Z,11.38
2019-03-03T10:33:12.303Z,11.37
2019-03-03T10:35:45.500Z,11.36
2019-03-03T10:38:15.945Z,11.39
2019-03-03T10:40:46.223Z,11.38
2019-03-03T10:43:19.786Z,11.34
2019-03-03T10:46:02.050Z,11.46
2019-03-03T10:48:32.484Z,11.34
2019-03-03T10:51:03.080Z,11.29
2019-03-03T10:53:33.390Z,11.24
2019-03-03T10:56:06.662Z,11.27
2019-03-03T10:58:37.366Z,11.29
2019-03-03T11:01:07.997Z,11.37
2019-03-03T11:03:44.283Z,11.40
2019-03-03T11:06:31.116Z,11.62
2019-03-03T11:09:01.377Z,11.64
2019-03-03T11:11:34.235Z,11.74
2019-03-03T11:14:15.396Z,11.65
2019-03-03T11:16:46.063Z,11.64
2019-03-03T11:19:32.434Z,11.58
2019-03-03T11:22:14.566Z,11.62
2019-03-03T11:24:51.160Z,11.70
2019-03-03T11:27:26.659Z,11.67
2019-03-03T11:30:00.472Z,11.76
2019-03-03T11:32:36.943Z,11.80
2019-03-03T11:35:08.195Z,11.77
2019-03-03T11:37:38.420Z,11.71
2019-03-03T11:40:11.889Z,11.77
2019-03-03T11:43:00.829Z,11.77
2019-03-03T11:45:33.946Z,11.79
2019-03-03T11:48:20.044Z,11.81
2019-03-03T11:50:53.289Z,11.70
2019-03-03T11:53:26.768Z,11.66
2019-03-03T11:56:05.909Z,11.69
2019-03-03T11:58:45.264Z,11.68
2019-03-03T12:01:35.198Z,11.60
2019-03-03T12:04:08.447Z,11.57
2019-03-03T12:06:41.693Z,11.47
2019-03-03T12:09:12.021Z,11.46
2019-03-03T12:11:48.542Z,11.43
2019-03-03T12:14:37.723Z,11.42
2019-03-03T12:17:09.776Z,11.41
2019-03-03T12:19:40.257Z,11.39
2019-03-03T12:22:26.687Z,11.43
2019-03-03T12:25:13.007Z,11.68
2019-03-03T12:27:49.055Z,11.71
2019-03-03T12:30:20.217Z,11.75
2019-03-03T12:33:08.875Z,11.72
2019-03-03T12:35:39.652Z,11.58
2019-03-03T12:38:09.900Z,11.47
2019-03-03T12:40:48.831Z,11.46
2019-03-03T12:43:22.064Z,11.40
2019-03-03T12:45:52.434Z,11.38
2019-03-03T12:48:22.643Z,11.48
2019-03-03T12:51:11.694Z,11.52
2019-03-03T12:53:42.093Z,11.45
2019-03-03T12:56:12.453Z,11.66
2019-03-03T12:58:43.097Z,11.74
2019-03-03T13:01:16.202Z,11.62
2019-03-03T13:03:58.725Z,11.62
2019-03-03T13:06:33.343Z,11.62
2019-03-03T13:09:09.745Z,11.55
2019-03-03T13:11:40.193Z,11.57
2019-03-03T13:14:13.561Z,11.52
2019-03-03T13:16:47.526Z,11.56
2019-03-03T13:19:32.814Z,11.70
2019-03-03T13:22:03.064Z,11.65
2019-03-03T13:24:36.571Z,11.74
2019-03-03T13:27:18.810Z,11.74
2019-03-03T13:29:52.064Z,11.77
2019-03-03T13:32:34.445Z,11.81
2019-03-03T13:35:06.573Z,11.77
2019-03-03T13:37:54.833Z,11.76
2019-03-03T13:40:34.564Z,11.76
2019-03-03T13:43:03.308Z,11.79
2019-03-03T13:45:32.460Z,11.84
2019-03-03T13:48:01.577Z,11.83
2019-03-03T13:50:30.340Z,11.87
2019-03-03T13:52:59.078Z,11.98
2019-03-03T13:55:27.867Z,11.97
2019-03-03T13:57:56.519Z,12.03
2019-03-03T14:00:25.256Z,12.05
2019-03-03T14:02:53.921Z,12.14
2019-03-03T14:05:23.074Z,12.03
2019-03-03T14:07:51.712Z,12.01
2019-03-03T14:10:20.956Z,11.97
2019-03-03T14:12:50.057Z,12.05
2019-03-03T14:15:19.927Z,11.86
2019-03-03T14:17:48.669Z,11.92
2019-03-03T14:20:19.725Z,11.86
2019-03-03T14:22:50.147Z,11.74
2019-03-03T14:25:19.731Z,11.68
2019-03-03T14:27:50.112Z,11.66
2019-03-03T14:30:21.972Z,11.68
2019-03-03T14:32:50.705Z,11.64
2019-03-03T14:35:20.279Z,11.60
2019-03-03T14:37:50.119Z,11.36
2019-03-03T14:40:22.707Z,11.31
2019-03-03T14:42:51.931Z,11.36
2019-03-03T14:45:21.191Z,11.27
2019-03-03T14:47:49.848Z,11.20
2019-03-03T14:50:23.127Z,11.17
2019-03-03T14:52:54.725Z,11.09
2019-03-03T14:55:24.371Z,11.08
2019-03-03T14:57:54.170Z,11.05
2019-03-03T15:00:26.833Z,10.87
2019-03-03T15:02:56.373Z,10.79
2019-03-03T15:05:25.036Z,10.71
2019-03-03T15:07:54.026Z,10.77
2019-03-03T15:10:22.686Z,10.74
2019-03-03T15:12:52.370Z,10.74
2019-03-03T15:15:24.366Z,10.60
2019-03-03T15:17:53.186Z,10.56
2019-03-03T15:20:22.287Z,10.54
2019-03-03T15:22:51.056Z,10.55
2019-03-03T15:25:19.842Z,10.48
2019-03-03T15:27:49.555Z,10.42
2019-03-03T15:30:21.399Z,10.46
2019-03-03T15:32:52.858Z,10.31
2019-03-03T15:35:21.642Z,10.35
2019-03-03T15:37:51.183Z,10.22
2019-03-03T15:40:26.755Z,10.31
2019-03-03T15:42:55.973Z,10.31
2019-03-03T15:45:27.177Z,10.15
2019-03-03T15:47:55.921Z,10.01
2019-03-03T15:50:25.850Z,10.01
2019-03-03T15:52:54.552Z,10.06
2019-03-03T15:55:25.808Z,9.97
2019-03-03T15:57:54.655Z,9.92
2019-03-03T16:00:29.899Z,9.90
2019-03-03T16:02:58.612Z,9.83
2019-03-03T16:05:27.498Z,9.86
2019-03-03T16:07:56.265Z,9.83
2019-03-03T16:10:27.014Z,9.84
2019-03-03T16:12:55.671Z,9.74
2019-03-03T16:15:24.583Z,9.76
2019-03-03T16:17:53.214Z,9.73
2019-03-03T16:20:25.478Z,9.72
2019-03-03T16:22:54.100Z,9.71
2019-03-03T16:25:24.068Z,9.69
2019-03-03T16:27:53.191Z,9.68
2019-03-03T16:30:23.167Z,9.68
2019-03-03T16:32:52.408Z,9.68
2019-03-03T16:35:22.028Z,9.66
2019-03-03T16:37:50.735Z,9.66
2019-03-03T16:40:21.850Z,9.64
2019-03-03T16:42:50.936Z,9.60
2019-03-03T16:45:20.920Z,9.62
2019-03-03T16:47:50.080Z,9.59
2019-03-03T16:50:20.462Z,9.59
2019-03-03T16:52:49.216Z,9.61
2019-03-03T16:55:19.253Z,9.60
2019-03-03T16:57:48.192Z,9.59
2019-03-03T17:00:22.644Z,9.58
2019-03-03T17:02:51.874Z,9.54
2019-03-03T17:05:22.759Z,9.58
2019-03-03T17:07:51.506Z,9.57
2019-03-03T17:10:20.349Z,9.54
2019-03-03T17:12:49.765Z,9.56
2019-03-03T17:15:20.853Z,9.55
2019-03-03T17:17:50.118Z,9.52
2019-03-03T17:20:19.217Z,9.50
2019-03-03T17:22:47.892Z,9.56
2019-03-03T17:25:23.295Z,9.48
2019-03-03T17:28:07.665Z,9.59
2019-03-03T17:30:39.903Z,9.56
2019-03-03T17:33:09.092Z,9.52
2019-03-03T17:35:37.732Z,9.54
2019-03-03T17:38:06.506Z,9.59
2019-03-03T17:40:35.953Z,9.55
2019-03-03T17:43:04.672Z,9.56
2019-03-03T17:45:33.532Z,9.53
2019-03-03T17:48:02.243Z,9.50
2019-03-03T17:50:31.606Z,9.53
2019-03-03T17:53:00.932Z,9.53
2019-03-03T17:55:29.661Z,9.52
2019-03-03T17:57:58.528Z,9.55
2019-03-03T18:00:36.149Z,9.48
2019-03-03T18:03:05.948Z,9.51
2019-03-03T18:05:35.047Z,9.57
2019-03-03T18:08:04.366Z,9.61
2019-03-03T18:10:34.365Z,9.58
2019-03-03T18:13:03.128Z,9.63
2019-03-03T18:15:32.033Z,9.63
2019-03-03T18:18:00.759Z,9.67
2019-03-03T18:20:29.466Z,9.71
2019-03-03T18:22:58.180Z,9.71
2019-03-03T18:25:26.846Z,9.74
2019-03-03T18:27:55.703Z,9.68
2019-03-03T18:30:28.750Z,9.71
2019-03-03T18:32:57.917Z,9.69
2019-03-03T18:35:27.117Z,9.67
2019-03-03T18:37:57.383Z,9.69
2019-03-03T18:40:28.148Z,9.72
2019-03-03T18:42:57.304Z,9.71
2019-03-03T18:45:26.211Z,9.80
2019-03-03T18:47:54.914Z,9.79
2019-03-03T18:50:30.869Z,9.83
2019-03-03T18:53:00.122Z,9.78
2019-03-03T18:55:29.018Z,9.76
2019-03-03T18:57:57.766Z,9.81
2019-03-03T19:00:28.638Z,9.79
2019-03-03T19:02:58.383Z,9.80
2019-03-03T19:05:27.130Z,9.84
2019-03-03T19:07:55.948Z,9.85
2019-03-03T19:10:30.315Z,9.83
2019-03-03T19:12:58.985Z,9.85
2019-03-03T19:15:27.631Z,9.84
2019-03-03T19:17:56.359Z,9.86
2019-03-03T19:20:26.820Z,9.90
2019-03-03T19:22:55.394Z,9.90
2019-03-03T19:25:24.393Z,9.89
2019-03-03T19:27:53.080Z,9.83
2019-03-03T19:30:24.220Z,9.86
2019-03-03T19:33:01.994Z,9.86
2019-03-03T19:35:30.896Z,9.90
2019-03-03T19:37:59.460Z,9.89
2019-03-03T19:40:28.396Z,9.87
2019-03-03T19:42:57.122Z,9.82
2019-03-03T19:45:31.702Z,9.92
2019-03-03T19:48:00.925Z,9.97
2019-03-03T19:50:30.224Z,9.92
2019-03-03T19:52:59.251Z,9.92
2019-03-03T19:55:28.314Z,9.86
2019-03-03T19:57:57.692Z,9.95
2019-03-03T20:00:35.431Z,9.95
2019-03-03T20:03:02.605Z,9.94
2019-03-03T20:05:31.811Z,9.88
2019-03-03T20:08:00.497Z,9.99
2019-03-03T20:10:29.530Z,9.96
2019-03-03T20:12:58.392Z,9.95
2019-03-03T20:15:28.642Z,9.98
2019-03-03T20:17:58.128Z,10.02
2019-03-03T20:20:27.848Z,10.05
2019-03-03T20:22:57.294Z,10.04
2019-03-03T20:25:26.369Z,10.01
2019-03-03T20:27:55.946Z,10.08
2019-03-03T20:30:25.660Z,10.05
2019-03-03T20:32:55.400Z,10.08
2019-03-03T20:35:24.351Z,10.13
2019-03-03T20:37:53.252Z,10.05
2019-03-03T20:40:27.394Z,10.13
2019-03-03T20:42:56.671Z,10.12
2019-03-03T20:45:29.703Z,10.19
2019-03-03T20:48:00.866Z,10.19
2019-03-03T20:50:29.655Z,10.25
2019-03-03T20:52:59.649Z,10.24
2019-03-03T20:55:33.150Z,10.20
2019-03-03T20:58:02.597Z,10.16
2019-03-03T21:00:32.476Z,10.27
2019-03-03T21:03:01.210Z,10.28
2019-03-03T21:05:31.302Z,10.28
2019-03-03T21:08:00.720Z,10.32
2019-03-03T21:10:35.558Z,10.35
2019-03-03T21:13:04.704Z,10.39
2019-03-03T21:15:33.388Z,10.37
2019-03-03T21:18:02.121Z,10.37
2019-03-03T21:20:31.458Z,10.40
2019-03-03T21:23:00.581Z,10.39
2019-03-03T21:25:29.691Z,10.31
2019-03-03T21:27:59.071Z,10.40
2019-03-03T21:30:28.710Z,10.39
2019-03-03T21:32:58.657Z,10.37
2019-03-03T21:35:27.310Z,10.30
2019-03-03T21:37:56.214Z,10.41
2019-03-03T21:40:28.678Z,10.37
2019-03-03T21:42:57.630Z,10.29
2019-03-03T21:45:27.849Z,10.39
2019-03-03T21:47:57.393Z,10.35
2019-03-03T21:50:27.623Z,10.33
2019-03-03T21:52:56.744Z,10.43
2019-03-03T21:55:25.479Z,10.45
2019-03-03T21:57:54.024Z,10.40
2019-03-03T22:00:31.469Z,10.30
2019-03-03T22:03:00.355Z,10.45
2019-03-03T22:05:29.002Z,10.46
2019-03-03T22:07:57.723Z,10.50
2019-03-03T22:10:29.578Z,10.38
2019-03-03T22:13:00.606Z,10.32
2019-03-03T22:15:29.331Z,10.32
2019-03-03T22:17:58.611Z,10.26
2019-03-03T22:20:27.164Z,10.19
2019-03-03T22:22:55.792Z,10.06
2019-03-03T22:25:24.662Z,10.08
2019-03-03T22:27:53.248Z,10.02
2019-03-03T22:30:22.990Z,9.95
2019-03-03T22:32:51.722Z,9.89
2019-03-03T22:35:20.349Z,9.88
2019-03-03T22:37:48.961Z,9.91
2019-03-03T22:40:19.758Z,9.81
2019-03-03T22:42:48.694Z,9.83
2019-03-03T22:45:18.347Z,9.80
2019-03-03T22:47:46.875Z,9.86
2019-03-03T22:50:16.959Z,9.86
2019-03-03T22:52:46.509Z,9.82
2019-03-03T22:55:16.843Z,9.90
2019-03-03T22:57:45.527Z,9.92
2019-03-03T23:00:51.037Z,9.94
2019-03-03T23:03:28.909Z,9.97
2019-03-03T23:06:00.809Z,9.91
2019-03-03T23:08:35.333Z,9.97
2019-03-03T23:11:09.581Z,10.03
2019-03-03T23:13:41.495Z,10.02
2019-03-03T23:16:38.833Z,10.04
2019-03-03T23:19:38.332Z,10.12
2019-03-03T23:22:18.756Z,10.11
2019-03-03T23:25:16.073Z,10.10
2019-03-03T23:27:44.642Z,10.17
2019-03-03T23:30:13.166Z,10.17
2019-03-03T23:32:41.799Z,10.15
2019-03-03T23:35:10.391Z,10.26
2019-03-03T23:37:38.962Z,10.37
2019-03-03T23:40:08.087Z,10.33
2019-03-03T23:42:36.686Z,10.29
2019-03-03T23:45:08.281Z,10.25
2019-03-03T23:47:36.920Z,10.20
2019-03-03T23:50:07.924Z,10.15
2019-03-03T23:52:36.894Z,10.25
2019-03-03T23:55:07.593Z,10.32
2019-03-03T23:57:36.193Z,10.18
